• Join FlightAware (Why Join?)
  • Login
  • US Flag 
09:41AM EST


 

Airport Tracker/Info


-or-


 

Live Flight TrackerFlight Track Log ✈ SWA862 ✈ 27-Apr-2013 ✈ KIND - KPHX

Flight Track Log - Related Links

Times and Time Zones

All times are in EDT time to prevent confusion due to time zone crossing. See the SWA862 flight status page for this flight to view local times or setup timezone preferences in your user account.

Time Position Orientation Groundspeed Altitude Reporting Facility
EDT Latitude Longitude Course Direction KTS MPH feet Rate Location/Type
07:44AM 39.7333 -86.2833 27° Northeast 171 197 1,700  Level Indianapolis TRACON
07:45AM 39.7833 -86.2500 27° Northeast 244 281 4,000 2,280 Climbing Indianapolis TRACON
07:46AM 39.8167 -86.3167 303° West 275 316 6,600 2,640 Climbing Indianapolis TRACON
07:47AM 39.8006 -86.3750 250° West 266 306 8,400 2,520 Climbing Indianapolis Center
07:48AM 39.7772 -86.4731 253° West 286 329 10,800 1,980 Climbing Indianapolis Center
07:49AM 39.7697 -86.5972 266° West 336 387 12,400 2,040 Climbing Indianapolis Center
07:50AM 39.7597 -86.7300 264° West 360 414 15,000 2,340 Climbing Indianapolis Center
07:51AM 39.7497 -86.8658 265° West 372 428 17,200 1,860 Climbing Indianapolis Center
07:52AM 39.7392 -87.0072 264° West 389 448 18,900 1,860 Climbing Indianapolis Center
07:53AM 39.7286 -87.1489 265° West 392 451 21,000 1,800 Climbing Indianapolis Center
07:54AM 39.7172 -87.2947 264° West 403 464 22,600 1,860 Climbing Indianapolis Center
07:55AM 39.7067 -87.4411 265° West 404 465 24,900 1,920 Climbing Indianapolis Center
07:56AM 39.6950 -87.5817 264° West 392 451 26,600 1,920 Climbing Indianapolis Center
07:57AM 39.6833 -87.7214 264° West 387 445 28,900 2,340 Climbing Indianapolis Center
07:58AM 39.6708 -87.8703 264° West 361 415 31,400 1,440 Climbing Indianapolis Center
07:59AM 39.6606 -87.9939 264° West 345 397 31,900 240 Climbing Indianapolis Center
08:00AM 39.6497 -88.1203 264° West 349 402 31,900  Level Indianapolis Center
08:01AM 39.6406 -88.2372 264° West 347 399 32,000  Climbing Kansas City Center
08:02AM 39.6311 -88.3619 264° West 347 399 32,000  Level Kansas City Center
08:03AM 39.6192 -88.4850 263° West 345 397 32,000  Level Kansas City Center
08:04AM 39.6078 -88.6058 263° West 347 399 32,000  Level Kansas City Center
08:05AM 39.5967 -88.7286 263° West 345 397 32,000  Level Kansas City Center
08:06AM 39.5931 -88.8511 268° West 343 395 32,000  Level Kansas City Center
08:07AM 39.6303 -88.9722 292° West 356 410 32,000  Level Kansas City Center
08:08AM 39.6506 -89.0969 282° West 361 415 32,000  Level Kansas City Center
08:09AM 39.6353 -89.2206 261° West 352 405 32,000 540 Level Kansas City Center
08:10AM 39.6181 -89.3622 261° West 351 404 33,100 960 Climbing Kansas City Center
08:11AM 39.6022 -89.4878 261° West 354 407 34,000 420 Climbing Kansas City Center
08:12AM 39.5861 -89.6125 261° West 352 405 34,000  Level Kansas City Center
08:13AM 39.5692 -89.7386 260° West 356 410 34,000  Level Kansas City Center
08:14AM 39.5528 -89.8656 261° West 358 412 34,000  Level Kansas City Center
08:15AM 39.5358 -89.9925 260° West 359 413 34,000  Level Kansas City Center
08:16AM 39.5189 -90.1214 260° West 363 418 34,000 60 Level Kansas City Center
08:17AM 39.5022 -90.2492 260° West 363 418 34,200 960 Climbing Kansas City Center
08:18AM 39.4856 -90.3722 260° West 356 410 36,000 840 Climbing Kansas City Center
08:19AM 39.4689 -90.4903 260° West 342 394 36,000  Level Kansas City Center
08:20AM 39.4483 -90.6331 259° West 339 390 36,000  Level Kansas City Center
08:21AM 39.4317 -90.7547 260° West 343 395 36,000  Level Kansas City Center
08:22AM 39.4136 -90.8758 259° West 345 397 36,000  Level Kansas City Center
08:23AM 39.3972 -90.9978 260° West 345 397 36,000  Level Kansas City Center
08:24AM 39.3794 -91.1178 259° West 344 396 36,000  Level Kansas City Center
08:25AM 39.3622 -91.2403 260° West 346 398 36,000  Level Kansas City Center
08:26AM 39.3442 -91.3633 259° West 348 400 36,000  Level Kansas City Center
08:27AM 39.3258 -91.4864 259° West 351 404 36,000  Level Kansas City Center
08:28AM 39.3078 -91.6103 259° West 351 404 36,000  Level Kansas City Center
08:29AM 39.2881 -91.7394 259° West 354 407 36,000  Level Kansas City Center
08:30AM 39.2692 -91.8642 259° West 355 409 36,000  Level Kansas City Center
08:31AM 39.2469 -92.0106 259° West 357 411 36,000  Level Kansas City Center
08:32AM 39.2283 -92.1350 259° West 354 407 36,000  Level Kansas City Center
08:33AM 39.2083 -92.2625 259° West 359 413 36,000  Level Kansas City Center
08:34AM 39.1881 -92.3922 259° West 364 419 36,000  Level Kansas City Center
08:35AM 39.1681 -92.5217 259° West 367 422 36,000  Level Kansas City Center
08:36AM 39.1469 -92.6533 258° West 371 427 36,000  Level Kansas City Center
08:37AM 39.1253 -92.7861 258° West 372 428 36,000  Level Kansas City Center
08:38AM 39.1036 -92.9167 258° West 375 432 36,000  Level Kansas City Center
08:39AM 39.0817 -93.0467 258° West 375 432 36,000  Level Kansas City Center
08:40AM 39.0606 -93.1831 259° West 379 436 36,000  Level Kansas City Center
08:41AM 39.0383 -93.3189 258° West 384 442 36,000  Level Kansas City Center
08:43AM 39.0119 -93.4786 258° West 385 443 36,000  Level Kansas City Center
08:44AM 38.9883 -93.6186 258° West 389 448 36,000  Level Kansas City Center
08:45AM 38.9664 -93.7481 258° West 386 444 36,000  Level Kansas City Center
08:46AM 38.9436 -93.8886 258° West 386 444 36,000  Level Kansas City Center
08:47AM 38.9217 -94.0183 258° West 387 445 36,000  Level Kansas City Center
08:48AM 38.8986 -94.1500 257° West 392 451 36,000  Level Kansas City Center
08:49AM 38.8719 -94.3039 257° West 394 453 36,000  Level Kansas City Center
08:50AM 38.8494 -94.4361 258° West 395 455 36,000  Level Kansas City Center
08:51AM 38.8253 -94.5686 257° West 396 456 36,000  Level Kansas City Center
08:52AM 38.7983 -94.7228 257° West 397 457 36,000  Level Kansas City Center
08:53AM 38.7747 -94.8558 257° West 399 459 36,000  Level Kansas City Center
08:54AM 38.7506 -94.9894 257° West 401 461 36,000  Level Kansas City Center
08:55AM 38.7225 -95.1447 257° West 399 459 36,000  Level Kansas City Center
08:56AM 38.6981 -95.2761 257° West 394 453 36,000  Level Kansas City Center
08:57AM 38.6742 -95.4133 257° West 405 466 36,000  Level Kansas City Center
08:58AM 38.6450 -95.5694 257° West 405 466 36,000  Level Kansas City Center
08:59AM 38.6192 -95.7036 256° West 404 465 36,000  Level Kansas City Center
09:00AM 38.5942 -95.8400 257° West 408 470 36,000  Level Kansas City Center
09:01AM 38.5656 -96.0000 257° West 413 475 36,000  Level Kansas City Center
09:02AM 38.5394 -96.1386 256° West 416 479 36,000  Level Kansas City Center
09:03AM 38.5100 -96.2744 255° West 416 479 36,000  Level Kansas City Center
09:04AM 38.4797 -96.4372 257° West 421 484 36,000  Level Kansas City Center
09:05AM 38.4511 -96.5786 256° West 418 481 36,000  Level Kansas City Center
09:06AM 38.4231 -96.7228 256° West 419 482 36,000  Level Kansas City Center
09:07AM 38.3958 -96.8650 256° West 415 478 36,000  Level Kansas City Center
09:08AM 38.3669 -97.0075 256° West 416 479 36,000  Level Kansas City Center
09:09AM 38.3392 -97.1486 256° West 412 474 36,000  Level Kansas City Center
09:10AM 38.3108 -97.2897 256° West 413 475 36,000  Level Kansas City Center
09:11AM 38.2825 -97.4308 256° West 413 475 36,000  Level Kansas City Center
09:12AM 38.2533 -97.5714 255° West 413 475 36,000  Level Kansas City Center
09:13AM 38.2236 -97.7125 255° West 416 479 36,000  Level Kansas City Center
09:14AM 38.1892 -97.8817 256° West 417 480 36,000  Level Kansas City Center
09:15AM 38.1597 -98.0217 255° West 417 480 36,000  Level Kansas City Center
09:16AM 38.1297 -98.1619 255° West 417 480 36,000  Level Kansas City Center
09:17AM 38.1006 -98.3014 255° West 414 476 36,000  Level Kansas City Center
09:18AM 38.0711 -98.4439 255° West 419 482 36,000  Level Kansas City Center
09:19AM 38.0397 -98.5844 254° West 416 479 36,000  Level Kansas City Center
09:20AM 38.0086 -98.7239 254° West 414 476 36,000  Level Kansas City Center
09:21AM 37.9800 -98.8653 256° West 414 476 36,000  Level Kansas City Center
09:22AM 37.9425 -99.0331 254° West 414 476 36,000  Level Kansas City Center
09:23AM 37.9114 -99.1731 254° West 414 476 36,000  Level Kansas City Center
09:24AM 37.8797 -99.3136 254° West 415 478 36,000  Level Kansas City Center
09:25AM 37.8500 -99.4533 255° West 414 476 36,000  Level Kansas City Center
09:26AM 37.8189 -99.5936 254° West 414 476 36,000  Level Kansas City Center
09:27AM 37.7836 -99.7500 254° West 414 476 36,000  Level Kansas City Center
09:28AM 37.7528 -99.8842 254° West 414 476 36,000  Level Kansas City Center
09:29AM 37.7222 -100.0178 254° West 414 476 36,000  Level Kansas City Center
09:30AM 37.6853 -100.1731 253° West 413 475 36,000  Level Kansas City Center
09:31AM 37.6544 -100.3069 254° West 415 478 36,000  Level Kansas City Center
09:32AM 37.6233 -100.4414 254° West 415 478 36,000  Level Kansas City Center
09:33AM 37.5903 -100.5811 253° West 416 479 36,000  Level Kansas City Center
09:34AM 37.5569 -100.7219 253° West 417 480 36,000  Level Kansas City Center
09:35AM 37.5231 -100.8631 253° West 420 483 36,000  Level Kansas City Center
09:36AM 37.4825 -101.0333 253° West 423 487 36,000  Level Kansas City Center
09:37AM 37.4503 -101.1689 253° West 421 484 36,000  Level Kansas City Center
09:38AM 37.4181 -101.3050 253° West 422 486 36,000  Level Kansas City Center
09:40AM 37.3792 -101.4636 253° West 424 488 36,000  Level Kansas City Center
09:41AM 37.3458 -101.5997 253° West 426 490 36,000  Level Kansas City Center
09:42AM 37.3131 -101.7369 253° West 427 491 36,000  Level Kansas City Center
09:43AM 37.2731 -101.8942 252° West 424 488 36,000  Level Kansas City Center
09:43AM 37.2639 -101.9419 256° West 427 491 36,000  Level Albuquerque Center
09:44AM 37.2214 -102.1017 252° West 432 497 36,000  Level Albuquerque Center
09:45AM 37.1931 -102.2269 254° West 430 495 36,000  Level Albuquerque Center
09:46AM 37.1514 -102.3869 252° West 432 497 36,000  Level Albuquerque Center
09:47AM 37.1172 -102.5247 253° West 432 497 36,000  Level Albuquerque Center
09:48AM 37.0811 -102.6608 252° West 430 495 36,000  Level Albuquerque Center
09:49AM 37.0411 -102.8225 253° West 433 498 36,000  Level Albuquerque Center
09:50AM 37.0056 -102.9606 252° West 435 501 36,000  Level Albuquerque Center
09:51AM 36.9689 -103.0967 251° West 431 496 36,000  Level Albuquerque Center
09:52AM 36.9286 -103.2564 253° West 430 495 36,000  Level Albuquerque Center
09:53AM 36.8925 -103.3939 252° West 431 496 36,000  Level Albuquerque Center
09:54AM 36.8558 -103.5306 252° West 432 497 36,000  Level Albuquerque Center
09:55AM 36.8142 -103.6878 252° West 428 493 36,000  Level Albuquerque Center
09:56AM 36.7786 -103.8231 252° West 427 491 36,000  Level Albuquerque Center
09:57AM 36.7414 -103.9581 251° West 427 491 36,000  Level Albuquerque Center
09:58AM 36.6983 -104.1169 251° West 429 494 36,000  Level Albuquerque Center
09:59AM 36.6619 -104.2514 251° West 430 495 36,000  Level Albuquerque Center
10:00AM 36.6233 -104.3928 251° West 429 494 36,000  Level Albuquerque Center
10:01AM 36.5842 -104.5336 251° West 429 494 36,000  Level Albuquerque Center
10:02AM 36.5456 -104.6764 251° West 431 496 36,000  Level Albuquerque Center
10:03AM 36.5061 -104.8183 251° West 433 498 36,000  Level Albuquerque Center
10:04AM 36.4633 -104.9589 249° West 432 497 36,000  Level Albuquerque Center
10:05AM 36.4142 -105.1019 247° West 443 510 36,000  Level Albuquerque Center
10:06AM 36.3672 -105.2417 247° West 441 507 36,000  Level Albuquerque Center
10:07AM 36.3203 -105.3814 247° West 439 505 36,000  Level Albuquerque Center
10:08AM 36.2722 -105.5200 247° West 436 502 36,000  Level Albuquerque Center
10:09AM 36.2244 -105.6639 248° West 435 501 36,000  Level Albuquerque Center
10:10AM 36.1775 -105.8017 247° West 436 502 36,000  Level Albuquerque Center
10:11AM 36.1311 -105.9375 247° West 432 497 36,000  Level Albuquerque Center
10:12AM 36.0836 -106.0750 247° West 434 499 36,000  Level Albuquerque Center
10:13AM 36.0364 -106.2122 247° West 435 501 36,000  Level Albuquerque Center
10:14AM 35.9897 -106.3492 247° West 435 501 36,000  Level Albuquerque Center
10:15AM 35.9331 -106.5125 247° West 432 497 36,000  Level Albuquerque Center
10:16AM 35.8881 -106.6369 246° West 436 502 36,000  Level Albuquerque Center
10:18AM 35.8344 -106.7919 247° West 439 505 36,000  Level Albuquerque Center
10:19AM 35.7883 -106.9222 246° West 435 501 36,000  Level Albuquerque Center
10:20AM 35.7331 -107.0756 246° West 437 503 36,000  Level Albuquerque Center
10:21AM 35.6867 -107.2053 246° West 435 501 36,000  Level Albuquerque Center
10:22AM 35.6408 -107.3358 247° West 434 499 36,000  Level Albuquerque Center
10:23AM 35.5856 -107.4878 246° West 435 501 36,000  Level Albuquerque Center
10:24AM 35.5375 -107.6186 246° West 436 502 36,000  Level Albuquerque Center
10:25AM 35.4900 -107.7489 246° West 436 502 36,000  Level Albuquerque Center
10:26AM 35.4356 -107.9008 246° West 435 501 36,000  Level Albuquerque Center
10:27AM 35.3872 -108.0319 246° West 437 503 36,000  Level Albuquerque Center
10:28AM 35.3308 -108.1844 246° West 438 504 36,000  Level Albuquerque Center
10:29AM 35.2825 -108.3142 245° Southwest 436 502 36,000  Level Albuquerque Center
10:30AM 35.2344 -108.4450 246° West 438 504 36,000  Level Albuquerque Center
10:31AM 35.1781 -108.5975 246° West 439 505 36,000  Level Albuquerque Center
10:32AM 35.1281 -108.7283 245° Southwest 440 506 36,000  Level Albuquerque Center
10:33AM 35.0717 -108.8808 246° West 439 505 36,000  Level Albuquerque Center
10:34AM 35.0225 -109.0108 245° Southwest 440 506 36,000  Level Albuquerque Center
10:35AM 34.9731 -109.1383 245° Southwest 437 503 36,000  Level Albuquerque Center
10:36AM 34.9189 -109.2892 246° West 434 499 36,000  Level Albuquerque Center
10:37AM 34.8731 -109.4161 246° West 429 494 36,000  Level Albuquerque Center
10:38AM 34.8172 -109.5592 245° Southwest 421 484 36,000  Level Albuquerque Center
10:39AM 34.7708 -109.6867 246° West 425 489 36,000  Level Albuquerque Center
10:40AM 34.7242 -109.8125 246° West 427 491 36,000  Level Albuquerque Center
10:41AM 34.6700 -109.9583 246° West 423 487 36,000  Level Albuquerque Center
10:42AM 34.6239 -110.0836 246° West 424 488 36,000  Level Albuquerque Center
10:43AM 34.5736 -110.2339 248° West 428 493 36,000 -600 Level Albuquerque Center
10:44AM 34.5236 -110.3500 242° Southwest 411 473 34,800 -1,500 Descending Albuquerque Center
10:45AM 34.4839 -110.4675 248° West 416 479 33,000 -1,740 Descending Albuquerque Center
10:46AM 34.4261 -110.6183 245° Southwest 415 478 31,300 -2,100 Descending Albuquerque Center
10:47AM 34.3742 -110.7506 245° Southwest 428 493 28,700 -1,920 Descending Albuquerque Center
10:48AM 34.3053 -110.8633 234° Southwest 422 486 27,400 -1,860 Descending Albuquerque Center
10:49AM 34.2233 -110.9653 226° Southwest 422 486 25,000 -2,280 Descending Albuquerque Center
10:50AM 34.1447 -111.0661 227° Southwest 416 479 22,800 -2,160 Descending Albuquerque Center
10:51AM 34.0700 -111.1628 227° Southwest 402 463 20,600 -2,100 Descending Albuquerque Center
10:52AM 33.9975 -111.2567 227° Southwest 388 447 18,500 -2,220 Descending Albuquerque Center
10:53AM 33.9144 -111.3633 227° Southwest 365 420 16,100 -1,800 Descending Albuquerque Center
10:54AM 33.8547 -111.4550 232° Southwest 351 404 14,800 -1,560 Descending Albuquerque Center
10:55AM 33.8031 -111.5539 238° Southwest 346 398 12,900 -1,740 Descending Albuquerque Center
10:56AM 33.7547 -111.6444 237° Southwest 323 372 11,300 -1,440 Descending Albuquerque Center
10:58AM 33.7111 -111.7275 238° Southwest 296 341 10,000 -660 Descending Albuquerque Center
10:59AM 33.6717 -111.7983 236° Southwest 255 293 10,000 -60 Level Albuquerque Center
11:00AM 33.6331 -111.8678 236° Southwest 249 287 9,900 -540 Descending Albuquerque Center
11:01AM 33.5953 -111.9386 237° Southwest 252 290 9,000 -900 Descending Albuquerque Center
11:02AM 33.5592 -112.0089 238° Southwest 247 284 8,100 -1,020 Descending Albuquerque Center
11:03AM 33.5258 -112.0894 244° Southwest 228 262 7,000 -600 Descending Albuquerque Center
11:04AM 33.5267 -112.1569 271° West 204 235 6,900 -660 Descending Albuquerque Center
11:05AM 33.5256 -112.2253 269° West 205 236 5,700 -1,140 Descending Albuquerque Center
11:06AM 33.4772 -112.2361 191° South 198 228 4,600 -1,140 Descending Albuquerque Center
11:07AM 33.4467 -112.1889 128° Southeast 186 214 3,400 -900 Descending Albuquerque Center
11:08AM 33.4406 -112.1306 97° East 178 205 2,800 -720 Descending Albuquerque Center
11:09AM 33.4403 -112.0778 90° East 162 186 2,000 -840 Descending Albuquerque Center
11:10AM 33.4411 -112.0256 89° East 135 155 1,100 -900 Descending Albuquerque Center